sensor_id;sensor_type;location;lat;lon;timestamp;P1;durP1;ratioP1;P2;durP2;ratioP2
55065;SDS011;40964;42.114;24.220;2024-02-26T00:01:26;25.38;;;11.90;;
55065;SDS011;40964;42.114;24.220;2024-02-26T00:03:52;91.43;;;38.83;;
55065;SDS011;40964;42.114;24.220;2024-02-26T00:06:19;39.63;;;16.88;;
55065;SDS011;40964;42.114;24.220;2024-02-26T00:08:44;34.55;;;15.98;;
55065;SDS011;40964;42.114;24.220;2024-02-26T00:11:10;28.77;;;13.75;;
55065;SDS011;40964;42.114;24.220;2024-02-26T00:13:35;26.35;;;13.05;;
55065;SDS011;40964;42.114;24.220;2024-02-26T00:16:01;28.42;;;11.80;;
55065;SDS011;40964;42.114;24.220;2024-02-26T00:18:28;20.27;;;10.20;;
55065;SDS011;40964;42.114;24.220;2024-02-26T00:20:53;21.45;;;9.88;;
55065;SDS011;40964;42.114;24.220;2024-02-26T00:23:19;23.27;;;11.30;;
55065;SDS011;40964;42.114;24.220;2024-02-26T00:25:44;22.50;;;11.20;;
55065;SDS011;40964;42.114;24.220;2024-02-26T00:28:10;20.00;;;10.88;;
55065;SDS011;40964;42.114;24.220;2024-02-26T00:30:36;24.38;;;11.50;;
55065;SDS011;40964;42.114;24.220;2024-02-26T00:33:01;22.52;;;10.80;;
55065;SDS011;40964;42.114;24.220;2024-02-26T00:35:27;23.75;;;10.60;;
55065;SDS011;40964;42.114;24.220;2024-02-26T00:37:52;24.95;;;11.65;;
55065;SDS011;40964;42.114;24.220;2024-02-26T00:40:18;25.90;;;13.43;;
55065;SDS011;40964;42.114;24.220;2024-02-26T00:42:43;24.98;;;12.70;;
55065;SDS011;40964;42.114;24.220;2024-02-26T00:45:11;25.90;;;12.38;;
55065;SDS011;40964;42.114;24.220;2024-02-26T00:47:37;24.20;;;11.57;;
55065;SDS011;40964;42.114;24.220;2024-02-26T00:50:03;24.95;;;13.20;;
55065;SDS011;40964;42.114;24.220;2024-02-26T00:52:28;26.88;;;13.35;;
55065;SDS011;40964;42.114;24.220;2024-02-26T00:54:54;19.88;;;11.10;;
55065;SDS011;40964;42.114;24.220;2024-02-26T00:57:19;22.20;;;11.98;;
55065;SDS011;40964;42.114;24.220;2024-02-26T00:59:44;25.85;;;11.93;;
55065;SDS011;40964;42.114;24.220;2024-02-26T01:02:10;26.52;;;13.18;;
55065;SDS011;40964;42.114;24.220;2024-02-26T01:04:35;27.35;;;14.52;;
55065;SDS011;40964;42.114;24.220;2024-02-26T01:07:01;28.70;;;13.60;;
55065;SDS011;40964;42.114;24.220;2024-02-26T01:09:26;27.13;;;12.65;;
55065;SDS011;40964;42.114;24.220;2024-02-26T01:11:52;26.73;;;11.48;;
55065;SDS011;40964;42.114;24.220;2024-02-26T01:14:17;21.55;;;10.85;;
55065;SDS011;40964;42.114;24.220;2024-02-26T01:16:42;20.98;;;11.15;;
55065;SDS011;40964;42.114;24.220;2024-02-26T01:19:08;24.00;;;11.20;;
55065;SDS011;40964;42.114;24.220;2024-02-26T01:21:33;23.58;;;11.10;;
55065;SDS011;40964;42.114;24.220;2024-02-26T01:23:59;19.67;;;10.57;;
55065;SDS011;40964;42.114;24.220;2024-02-26T01:26:24;28.02;;;11.18;;
55065;SDS011;40964;42.114;24.220;2024-02-26T01:28:50;24.65;;;11.40;;
55065;SDS011;40964;42.114;24.220;2024-02-26T01:31:15;22.20;;;10.38;;
55065;SDS011;40964;42.114;24.220;2024-02-26T01:33:41;24.55;;;10.75;;
55065;SDS011;40964;42.114;24.220;2024-02-26T01:36:06;24.70;;;10.50;;
55065;SDS011;40964;42.114;24.220;2024-02-26T01:38:31;26.90;;;10.90;;
55065;SDS011;40964;42.114;24.220;2024-02-26T01:40:57;22.90;;;11.02;;
55065;SDS011;40964;42.114;24.220;2024-02-26T01:43:22;25.00;;;10.60;;
55065;SDS011;40964;42.114;24.220;2024-02-26T01:45:48;22.20;;;10.88;;
55065;SDS011;40964;42.114;24.220;2024-02-26T01:48:13;21.92;;;11.15;;
55065;SDS011;40964;42.114;24.220;2024-02-26T01:50:39;23.50;;;11.43;;
55065;SDS011;40964;42.114;24.220;2024-02-26T01:53:06;27.27;;;11.70;;
55065;SDS011;40964;42.114;24.220;2024-02-26T01:55:32;23.75;;;11.55;;
55065;SDS011;40964;42.114;24.220;2024-02-26T01:57:58;25.70;;;11.15;;
55065;SDS011;40964;42.114;24.220;2024-02-26T02:00:25;26.17;;;12.45;;
55065;SDS011;40964;42.114;24.220;2024-02-26T02:02:51;29.30;;;11.90;;
55065;SDS011;40964;42.114;24.220;2024-02-26T02:05:17;22.33;;;11.25;;
55065;SDS011;40964;42.114;24.220;2024-02-26T02:07:45;23.45;;;10.85;;
55065;SDS011;40964;42.114;24.220;2024-02-26T02:10:13;25.10;;;11.73;;
55065;SDS011;40964;42.114;24.220;2024-02-26T02:12:39;22.50;;;10.23;;
55065;SDS011;40964;42.114;24.220;2024-02-26T02:15:05;19.27;;;8.32;;
55065;SDS011;40964;42.114;24.220;2024-02-26T02:17:31;16.10;;;8.32;;
55065;SDS011;40964;42.114;24.220;2024-02-26T02:19:57;18.83;;;8.98;;
55065;SDS011;40964;42.114;24.220;2024-02-26T02:22:22;21.45;;;9.23;;
55065;SDS011;40964;42.114;24.220;2024-02-26T02:24:48;19.73;;;9.48;;
55065;SDS011;40964;42.114;24.220;2024-02-26T02:27:14;21.13;;;9.38;;
55065;SDS011;40964;42.114;24.220;2024-02-26T02:29:40;23.25;;;10.25;;
55065;SDS011;40964;42.114;24.220;2024-02-26T02:32:05;17.95;;;8.57;;
55065;SDS011;40964;42.114;24.220;2024-02-26T02:34:31;24.23;;;9.23;;
55065;SDS011;40964;42.114;24.220;2024-02-26T02:36:57;17.77;;;8.70;;
55065;SDS011;40964;42.114;24.220;2024-02-26T02:39:23;17.23;;;8.93;;
55065;SDS011;40964;42.114;24.220;2024-02-26T02:41:48;16.70;;;8.75;;
55065;SDS011;40964;42.114;24.220;2024-02-26T02:44:14;21.48;;;9.23;;
55065;SDS011;40964;42.114;24.220;2024-02-26T02:46:39;20.67;;;9.63;;
55065;SDS011;40964;42.114;24.220;2024-02-26T02:49:08;19.38;;;8.98;;
55065;SDS011;40964;42.114;24.220;2024-02-26T02:51:35;18.10;;;8.93;;
55065;SDS011;40964;42.114;24.220;2024-02-26T02:54:00;17.15;;;9.02;;
55065;SDS011;40964;42.114;24.220;2024-02-26T02:56:26;24.55;;;9.60;;
55065;SDS011;40964;42.114;24.220;2024-02-26T02:58:51;17.75;;;8.20;;
55065;SDS011;40964;42.114;24.220;2024-02-26T03:01:17;18.05;;;8.00;;
55065;SDS011;40964;42.114;24.220;2024-02-26T03:03:42;27.65;;;12.25;;
55065;SDS011;40964;42.114;24.220;2024-02-26T03:06:08;29.38;;;12.75;;
55065;SDS011;40964;42.114;24.220;2024-02-26T03:08:33;20.40;;;10.30;;
55065;SDS011;40964;42.114;24.220;2024-02-26T03:11:03;18.02;;;8.07;;
55065;SDS011;40964;42.114;24.220;2024-02-26T03:13:29;17.88;;;8.23;;
55065;SDS011;40964;42.114;24.220;2024-02-26T03:15:54;18.55;;;8.85;;
55065;SDS011;40964;42.114;24.220;2024-02-26T03:18:19;21.98;;;10.60;;
55065;SDS011;40964;42.114;24.220;2024-02-26T03:20:45;22.40;;;9.52;;
55065;SDS011;40964;42.114;24.220;2024-02-26T03:23:11;16.85;;;9.05;;
55065;SDS011;40964;42.114;24.220;2024-02-26T03:25:41;15.20;;;8.52;;
55065;SDS011;40964;42.114;24.220;2024-02-26T03:28:07;14.88;;;7.85;;
55065;SDS011;40964;42.114;24.220;2024-02-26T03:30:33;18.42;;;8.85;;
55065;SDS011;40964;42.114;24.220;2024-02-26T03:32:58;19.05;;;8.13;;
55065;SDS011;40964;42.114;24.220;2024-02-26T03:35:23;14.05;;;7.20;;
55065;SDS011;40964;42.114;24.220;2024-02-26T03:37:49;17.13;;;8.48;;
55065;SDS011;40964;42.114;24.220;2024-02-26T03:40:16;16.58;;;8.77;;
55065;SDS011;40964;42.114;24.220;2024-02-26T03:42:43;19.50;;;8.75;;
55065;SDS011;40964;42.114;24.220;2024-02-26T03:45:09;16.02;;;7.53;;
55065;SDS011;40964;42.114;24.220;2024-02-26T03:47:34;18.30;;;8.15;;
55065;SDS011;40964;42.114;24.220;2024-02-26T03:50:00;18.35;;;8.20;;
55065;SDS011;40964;42.114;24.220;2024-02-26T03:52:25;22.23;;;8.10;;
55065;SDS011;40964;42.114;24.220;2024-02-26T03:54:51;15.35;;;8.52;;
55065;SDS011;40964;42.114;24.220;2024-02-26T03:57:16;21.40;;;8.57;;
55065;SDS011;40964;42.114;24.220;2024-02-26T03:59:42;13.23;;;7.40;;
55065;SDS011;40964;42.114;24.220;2024-02-26T04:02:07;14.70;;;7.38;;
55065;SDS011;40964;42.114;24.220;2024-02-26T04:04:34;13.10;;;7.05;;
55065;SDS011;40964;42.114;24.220;2024-02-26T04:07:00;11.52;;;6.85;;
55065;SDS011;40964;42.114;24.220;2024-02-26T04:09:25;15.07;;;7.55;;
55065;SDS011;40964;42.114;24.220;2024-02-26T04:11:51;16.83;;;8.10;;
55065;SDS011;40964;42.114;24.220;2024-02-26T04:14:16;15.00;;;7.03;;
55065;SDS011;40964;42.114;24.220;2024-02-26T04:16:41;15.75;;;6.50;;
55065;SDS011;40964;42.114;24.220;2024-02-26T04:19:07;14.07;;;6.60;;
55065;SDS011;40964;42.114;24.220;2024-02-26T04:21:33;12.15;;;6.47;;
55065;SDS011;40964;42.114;24.220;2024-02-26T04:23:59;15.10;;;7.43;;
55065;SDS011;40964;42.114;24.220;2024-02-26T04:26:27;10.77;;;6.10;;
55065;SDS011;40964;42.114;24.220;2024-02-26T04:28:54;16.70;;;6.53;;
55065;SDS011;40964;42.114;24.220;2024-02-26T04:31:19;10.70;;;6.10;;
55065;SDS011;40964;42.114;24.220;2024-02-26T04:33:45;11.52;;;5.90;;
55065;SDS011;40964;42.114;24.220;2024-02-26T04:36:13;12.63;;;6.13;;
55065;SDS011;40964;42.114;24.220;2024-02-26T04:38:40;10.98;;;5.85;;
55065;SDS011;40964;42.114;24.220;2024-02-26T04:41:06;10.60;;;6.13;;
55065;SDS011;40964;42.114;24.220;2024-02-26T04:43:31;11.32;;;5.70;;
55065;SDS011;40964;42.114;24.220;2024-02-26T04:45:57;11.93;;;6.32;;
55065;SDS011;40964;42.114;24.220;2024-02-26T04:48:22;15.32;;;6.63;;
55065;SDS011;40964;42.114;24.220;2024-02-26T04:50:48;14.30;;;6.43;;
55065;SDS011;40964;42.114;24.220;2024-02-26T04:53:13;12.18;;;5.93;;
55065;SDS011;40964;42.114;24.220;2024-02-26T04:55:39;11.10;;;6.47;;
55065;SDS011;40964;42.114;24.220;2024-02-26T04:58:04;15.35;;;7.20;;
55065;SDS011;40964;42.114;24.220;2024-02-26T05:00:29;14.20;;;7.63;;
55065;SDS011;40964;42.114;24.220;2024-02-26T05:02:55;14.48;;;6.68;;
55065;SDS011;40964;42.114;24.220;2024-02-26T05:05:20;13.30;;;7.18;;
55065;SDS011;40964;42.114;24.220;2024-02-26T05:07:46;17.25;;;7.82;;
55065;SDS011;40964;42.114;24.220;2024-02-26T05:10:11;16.70;;;8.23;;
55065;SDS011;40964;42.114;24.220;2024-02-26T05:12:37;25.98;;;10.90;;
55065;SDS011;40964;42.114;24.220;2024-02-26T05:15:05;26.77;;;11.55;;
55065;SDS011;40964;42.114;24.220;2024-02-26T05:17:31;24.73;;;11.82;;
55065;SDS011;40964;42.114;24.220;2024-02-26T05:19:56;22.90;;;11.02;;
55065;SDS011;40964;42.114;24.220;2024-02-26T05:22:22;24.70;;;11.68;;
55065;SDS011;40964;42.114;24.220;2024-02-26T05:24:47;25.40;;;11.85;;
55065;SDS011;40964;42.114;24.220;2024-02-26T05:27:13;20.60;;;8.95;;
55065;SDS011;40964;42.114;24.220;2024-02-26T05:29:38;17.73;;;8.43;;
55065;SDS011;40964;42.114;24.220;2024-02-26T05:32:04;59.30;;;21.23;;
55065;SDS011;40964;42.114;24.220;2024-02-26T05:34:30;29.95;;;13.43;;
55065;SDS011;40964;42.114;24.220;2024-02-26T05:36:56;26.88;;;11.65;;
55065;SDS011;40964;42.114;24.220;2024-02-26T05:39:21;19.88;;;10.75;;
55065;SDS011;40964;42.114;24.220;2024-02-26T05:41:46;22.95;;;10.90;;
55065;SDS011;40964;42.114;24.220;2024-02-26T05:44:12;31.80;;;13.90;;
55065;SDS011;40964;42.114;24.220;2024-02-26T05:46:39;27.17;;;12.60;;
55065;SDS011;40964;42.114;24.220;2024-02-26T05:49:05;34.33;;;15.38;;
55065;SDS011;40964;42.114;24.220;2024-02-26T05:51:31;33.45;;;15.82;;
55065;SDS011;40964;42.114;24.220;2024-02-26T05:53:56;29.73;;;14.50;;
55065;SDS011;40964;42.114;24.220;2024-02-26T05:56:23;20.08;;;10.43;;
55065;SDS011;40964;42.114;24.220;2024-02-26T05:58:48;18.02;;;9.18;;
55065;SDS011;40964;42.114;24.220;2024-02-26T06:06:13;17.15;;;7.82;;
55065;SDS011;40964;42.114;24.220;2024-02-26T06:08:42;11.27;;;6.57;;
55065;SDS011;40964;42.114;24.220;2024-02-26T06:11:07;13.30;;;7.50;;
55065;SDS011;40964;42.114;24.220;2024-02-26T06:13:33;17.63;;;7.50;;
55065;SDS011;40964;42.114;24.220;2024-02-26T06:15:59;16.90;;;7.97;;
55065;SDS011;40964;42.114;24.220;2024-02-26T06:18:24;16.27;;;8.15;;
55065;SDS011;40964;42.114;24.220;2024-02-26T06:20:50;20.38;;;8.63;;
55065;SDS011;40964;42.114;24.220;2024-02-26T06:23:15;17.02;;;9.15;;
55065;SDS011;40964;42.114;24.220;2024-02-26T06:25:41;16.83;;;9.50;;
55065;SDS011;40964;42.114;24.220;2024-02-26T06:28:07;18.00;;;8.88;;
55065;SDS011;40964;42.114;24.220;2024-02-26T06:30:33;21.35;;;11.55;;
55065;SDS011;40964;42.114;24.220;2024-02-26T06:33:00;22.42;;;10.88;;
55065;SDS011;40964;42.114;24.220;2024-02-26T06:35:25;27.67;;;13.02;;
55065;SDS011;40964;42.114;24.220;2024-02-26T06:37:50;23.80;;;11.70;;
55065;SDS011;40964;42.114;24.220;2024-02-26T06:40:18;25.20;;;11.95;;
55065;SDS011;40964;42.114;24.220;2024-02-26T06:42:46;26.55;;;12.38;;
55065;SDS011;40964;42.114;24.220;2024-02-26T06:45:12;21.50;;;11.32;;
55065;SDS011;40964;42.114;24.220;2024-02-26T06:47:37;23.60;;;10.75;;
55065;SDS011;40964;42.114;24.220;2024-02-26T06:50:03;20.92;;;10.93;;
55065;SDS011;40964;42.114;24.220;2024-02-26T06:52:29;22.20;;;10.93;;
55065;SDS011;40964;42.114;24.220;2024-02-26T06:54:54;22.23;;;10.95;;
55065;SDS011;40964;42.114;24.220;2024-02-26T06:57:20;23.20;;;11.32;;
55065;SDS011;40964;42.114;24.220;2024-02-26T06:59:45;23.48;;;11.07;;
55065;SDS011;40964;42.114;24.220;2024-02-26T07:02:12;27.27;;;14.55;;
55065;SDS011;40964;42.114;24.220;2024-02-26T07:04:38;22.60;;;12.57;;
55065;SDS011;40964;42.114;24.220;2024-02-26T07:07:04;27.15;;;12.75;;
55065;SDS011;40964;42.114;24.220;2024-02-26T07:09:29;31.38;;;14.07;;
55065;SDS011;40964;42.114;24.220;2024-02-26T07:11:55;28.00;;;12.80;;
55065;SDS011;40964;42.114;24.220;2024-02-26T07:14:20;25.02;;;12.77;;
55065;SDS011;40964;42.114;24.220;2024-02-26T07:16:45;28.70;;;13.60;;
55065;SDS011;40964;42.114;24.220;2024-02-26T07:19:11;30.70;;;15.48;;
55065;SDS011;40964;42.114;24.220;2024-02-26T07:21:36;38.65;;;14.30;;
55065;SDS011;40964;42.114;24.220;2024-02-26T07:24:02;36.85;;;16.10;;
55065;SDS011;40964;42.114;24.220;2024-02-26T07:26:27;30.92;;;13.70;;
55065;SDS011;40964;42.114;24.220;2024-02-26T07:28:55;32.03;;;13.90;;
55065;SDS011;40964;42.114;24.220;2024-02-26T07:31:21;36.00;;;14.13;;
55065;SDS011;40964;42.114;24.220;2024-02-26T07:33:46;29.23;;;12.93;;
55065;SDS011;40964;42.114;24.220;2024-02-26T07:36:12;25.17;;;12.75;;
55065;SDS011;40964;42.114;24.220;2024-02-26T07:38:37;29.83;;;13.23;;
55065;SDS011;40964;42.114;24.220;2024-02-26T07:41:03;27.25;;;12.50;;
55065;SDS011;40964;42.114;24.220;2024-02-26T07:43:28;25.60;;;12.70;;
55065;SDS011;40964;42.114;24.220;2024-02-26T07:45:54;28.30;;;13.35;;
55065;SDS011;40964;42.114;24.220;2024-02-26T07:48:19;29.70;;;13.15;;
55065;SDS011;40964;42.114;24.220;2024-02-26T07:50:45;30.33;;;13.27;;
55065;SDS011;40964;42.114;24.220;2024-02-26T07:53:11;25.42;;;12.63;;
55065;SDS011;40964;42.114;24.220;2024-02-26T07:55:36;26.20;;;13.50;;
55065;SDS011;40964;42.114;24.220;2024-02-26T07:58:01;27.10;;;12.93;;
55065;SDS011;40964;42.114;24.220;2024-02-26T08:00:27;37.47;;;17.80;;
55065;SDS011;40964;42.114;24.220;2024-02-26T08:02:53;30.50;;;15.13;;
55065;SDS011;40964;42.114;24.220;2024-02-26T08:05:18;37.72;;;15.48;;
55065;SDS011;40964;42.114;24.220;2024-02-26T08:07:44;28.25;;;14.38;;
55065;SDS011;40964;42.114;24.220;2024-02-26T08:10:09;30.50;;;13.52;;
55065;SDS011;40964;42.114;24.220;2024-02-26T08:12:36;25.67;;;13.10;;
55065;SDS011;40964;42.114;24.220;2024-02-26T08:15:02;37.65;;;15.65;;
55065;SDS011;40964;42.114;24.220;2024-02-26T08:17:27;54.90;;;22.23;;
55065;SDS011;40964;42.114;24.220;2024-02-26T08:19:53;33.13;;;15.30;;
55065;SDS011;40964;42.114;24.220;2024-02-26T08:22:18;55.47;;;20.08;;
55065;SDS011;40964;42.114;24.220;2024-02-26T08:24:44;67.30;;;29.00;;
55065;SDS011;40964;42.114;24.220;2024-02-26T08:27:09;57.70;;;22.27;;
55065;SDS011;40964;42.114;24.220;2024-02-26T08:29:35;50.55;;;19.58;;
55065;SDS011;40964;42.114;24.220;2024-02-26T08:32:01;32.58;;;13.45;;
55065;SDS011;40964;42.114;24.220;2024-02-26T08:34:26;19.98;;;11.13;;
55065;SDS011;40964;42.114;24.220;2024-02-26T08:36:52;18.52;;;8.60;;
55065;SDS011;40964;42.114;24.220;2024-02-26T08:39:17;15.75;;;8.68;;
55065;SDS011;40964;42.114;24.220;2024-02-26T08:41:43;19.20;;;9.30;;
55065;SDS011;40964;42.114;24.220;2024-02-26T08:44:09;19.05;;;8.93;;
55065;SDS011;40964;42.114;24.220;2024-02-26T08:46:35;18.70;;;9.40;;
55065;SDS011;40964;42.114;24.220;2024-02-26T08:49:00;19.17;;;9.27;;
55065;SDS011;40964;42.114;24.220;2024-02-26T08:51:26;22.55;;;10.77;;
55065;SDS011;40964;42.114;24.220;2024-02-26T08:53:51;24.83;;;12.68;;
55065;SDS011;40964;42.114;24.220;2024-02-26T08:56:18;23.23;;;11.32;;
55065;SDS011;40964;42.114;24.220;2024-02-26T08:58:44;24.35;;;10.77;;
55065;SDS011;40964;42.114;24.220;2024-02-26T09:03:48;20.90;;;11.18;;
55065;SDS011;40964;42.114;24.220;2024-02-26T09:06:15;23.38;;;11.75;;
55065;SDS011;40964;42.114;24.220;2024-02-26T09:08:40;28.20;;;14.00;;
55065;SDS011;40964;42.114;24.220;2024-02-26T09:11:06;25.00;;;12.23;;
55065;SDS011;40964;42.114;24.220;2024-02-26T09:13:31;32.30;;;14.15;;
55065;SDS011;40964;42.114;24.220;2024-02-26T09:15:57;26.05;;;13.02;;
55065;SDS011;40964;42.114;24.220;2024-02-26T09:18:23;27.75;;;13.82;;
55065;SDS011;40964;42.114;24.220;2024-02-26T09:20:49;28.90;;;14.07;;
55065;SDS011;40964;42.114;24.220;2024-02-26T09:23:15;32.88;;;14.40;;
55065;SDS011;40964;42.114;24.220;2024-02-26T09:25:40;31.90;;;13.88;;
55065;SDS011;40964;42.114;24.220;2024-02-26T09:28:06;28.08;;;13.48;;
55065;SDS011;40964;42.114;24.220;2024-02-26T09:30:31;27.02;;;12.75;;
55065;SDS011;40964;42.114;24.220;2024-02-26T09:32:57;32.47;;;13.68;;
55065;SDS011;40964;42.114;24.220;2024-02-26T09:35:22;26.92;;;13.18;;
55065;SDS011;40964;42.114;24.220;2024-02-26T09:37:47;34.17;;;16.60;;
55065;SDS011;40964;42.114;24.220;2024-02-26T09:40:14;37.58;;;16.10;;
55065;SDS011;40964;42.114;24.220;2024-02-26T09:42:44;27.35;;;13.68;;
55065;SDS011;40964;42.114;24.220;2024-02-26T09:45:20;31.85;;;15.75;;
55065;SDS011;40964;42.114;24.220;2024-02-26T09:47:48;31.10;;;14.10;;
55065;SDS011;40964;42.114;24.220;2024-02-26T09:50:17;24.98;;;12.73;;
55065;SDS011;40964;42.114;24.220;2024-02-26T09:52:43;27.85;;;13.23;;
55065;SDS011;40964;42.114;24.220;2024-02-26T09:55:09;25.38;;;11.73;;
55065;SDS011;40964;42.114;24.220;2024-02-26T09:57:38;37.42;;;13.13;;
55065;SDS011;40964;42.114;24.220;2024-02-26T10:00:09;26.63;;;12.85;;
55065;SDS011;40964;42.114;24.220;2024-02-26T10:02:41;25.75;;;12.73;;
55065;SDS011;40964;42.114;24.220;2024-02-26T10:05:07;29.42;;;12.90;;
55065;SDS011;40964;42.114;24.220;2024-02-26T10:07:37;24.23;;;12.40;;
55065;SDS011;40964;42.114;24.220;2024-02-26T10:10:03;27.65;;;11.60;;
55065;SDS011;40964;42.114;24.220;2024-02-26T10:12:29;28.58;;;13.50;;
55065;SDS011;40964;42.114;24.220;2024-02-26T10:14:56;24.48;;;12.30;;
55065;SDS011;40964;42.114;24.220;2024-02-26T10:17:21;25.45;;;12.27;;
55065;SDS011;40964;42.114;24.220;2024-02-26T10:19:47;26.15;;;13.05;;
55065;SDS011;40964;42.114;24.220;2024-02-26T10:22:13;31.25;;;11.85;;
55065;SDS011;40964;42.114;24.220;2024-02-26T10:24:38;24.60;;;11.65;;
55065;SDS011;40964;42.114;24.220;2024-02-26T10:27:03;25.05;;;12.15;;
55065;SDS011;40964;42.114;24.220;2024-02-26T10:29:30;28.08;;;12.45;;
55065;SDS011;40964;42.114;24.220;2024-02-26T10:31:56;30.10;;;13.38;;
55065;SDS011;40964;42.114;24.220;2024-02-26T10:34:21;22.98;;;12.55;;
55065;SDS011;40964;42.114;24.220;2024-02-26T10:36:48;29.15;;;12.57;;
55065;SDS011;40964;42.114;24.220;2024-02-26T10:39:14;27.25;;;12.70;;
55065;SDS011;40964;42.114;24.220;2024-02-26T10:41:43;25.63;;;12.52;;
55065;SDS011;40964;42.114;24.220;2024-02-26T10:44:10;29.90;;;14.02;;
55065;SDS011;40964;42.114;24.220;2024-02-26T10:46:38;32.47;;;14.25;;
55065;SDS011;40964;42.114;24.220;2024-02-26T10:49:05;27.10;;;13.07;;
55065;SDS011;40964;42.114;24.220;2024-02-26T10:51:37;27.30;;;13.68;;
55065;SDS011;40964;42.114;24.220;2024-02-26T10:54:03;25.98;;;14.18;;
55065;SDS011;40964;42.114;24.220;2024-02-26T10:56:33;28.70;;;14.07;;
55065;SDS011;40964;42.114;24.220;2024-02-26T10:58:59;32.45;;;13.35;;
55065;SDS011;40964;42.114;24.220;2024-02-26T11:01:26;32.85;;;15.52;;
55065;SDS011;40964;42.114;24.220;2024-02-26T11:03:54;31.92;;;15.32;;
55065;SDS011;40964;42.114;24.220;2024-02-26T11:06:21;29.23;;;14.35;;
55065;SDS011;40964;42.114;24.220;2024-02-26T11:08:50;29.38;;;13.77;;
55065;SDS011;40964;42.114;24.220;2024-02-26T11:11:20;29.30;;;13.75;;
55065;SDS011;40964;42.114;24.220;2024-02-26T11:13:46;27.70;;;14.00;;
55065;SDS011;40964;42.114;24.220;2024-02-26T11:16:19;28.13;;;13.70;;
55065;SDS011;40964;42.114;24.220;2024-02-26T11:18:47;25.80;;;13.05;;
55065;SDS011;40964;42.114;24.220;2024-02-26T11:21:16;28.52;;;14.60;;
55065;SDS011;40964;42.114;24.220;2024-02-26T11:23:52;27.98;;;14.57;;
55065;SDS011;40964;42.114;24.220;2024-02-26T11:26:18;30.13;;;14.00;;
55065;SDS011;40964;42.114;24.220;2024-02-26T11:28:45;32.03;;;14.43;;
55065;SDS011;40964;42.114;24.220;2024-02-26T11:31:12;34.95;;;16.20;;
55065;SDS011;40964;42.114;24.220;2024-02-26T11:33:38;32.25;;;15.73;;
55065;SDS011;40964;42.114;24.220;2024-02-26T11:36:08;35.63;;;16.90;;
55065;SDS011;40964;42.114;24.220;2024-02-26T11:38:35;33.35;;;15.95;;
55065;SDS011;40964;42.114;24.220;2024-02-26T11:41:01;34.90;;;15.73;;
55065;SDS011;40964;42.114;24.220;2024-02-26T11:52:04;27.30;;;14.40;;
55065;SDS011;40964;42.114;24.220;2024-02-26T11:54:48;29.35;;;15.07;;
55065;SDS011;40964;42.114;24.220;2024-02-26T11:57:30;27.55;;;14.00;;
55065;SDS011;40964;42.114;24.220;2024-02-26T12:05:10;26.25;;;12.57;;
55065;SDS011;40964;42.114;24.220;2024-02-26T12:07:44;26.55;;;12.90;;
55065;SDS011;40964;42.114;24.220;2024-02-26T12:10:59;27.05;;;14.77;;
55065;SDS011;40964;42.114;24.220;2024-02-26T12:15:42;27.15;;;12.55;;
55065;SDS011;40964;42.114;24.220;2024-02-26T12:18:09;22.08;;;11.18;;
55065;SDS011;40964;42.114;24.220;2024-02-26T12:20:36;20.98;;;11.13;;
55065;SDS011;40964;42.114;24.220;2024-02-26T12:23:02;25.38;;;11.95;;
55065;SDS011;40964;42.114;24.220;2024-02-26T12:25:32;38.60;;;12.75;;
55065;SDS011;40964;42.114;24.220;2024-02-26T12:27:58;25.10;;;10.35;;
55065;SDS011;40964;42.114;24.220;2024-02-26T12:30:25;20.23;;;10.00;;
55065;SDS011;40964;42.114;24.220;2024-02-26T12:32:51;23.10;;;11.00;;
55065;SDS011;40964;42.114;24.220;2024-02-26T12:35:22;19.25;;;10.18;;
55065;SDS011;40964;42.114;24.220;2024-02-26T12:37:48;20.30;;;10.30;;
55065;SDS011;40964;42.114;24.220;2024-02-26T12:40:13;20.45;;;9.90;;
55065;SDS011;40964;42.114;24.220;2024-02-26T12:42:39;20.90;;;11.52;;
55065;SDS011;40964;42.114;24.220;2024-02-26T12:45:09;22.25;;;11.10;;
55065;SDS011;40964;42.114;24.220;2024-02-26T12:47:39;20.90;;;10.57;;
55065;SDS011;40964;42.114;24.220;2024-02-26T12:50:05;18.83;;;10.30;;
55065;SDS011;40964;42.114;24.220;2024-02-26T12:52:32;23.00;;;10.80;;
55065;SDS011;40964;42.114;24.220;2024-02-26T12:54:59;25.70;;;11.30;;
55065;SDS011;40964;42.114;24.220;2024-02-26T12:57:26;20.15;;;10.10;;
55065;SDS011;40964;42.114;24.220;2024-02-26T12:59:54;19.98;;;9.85;;
55065;SDS011;40964;42.114;24.220;2024-02-26T13:02:19;23.23;;;10.35;;
55065;SDS011;40964;42.114;24.220;2024-02-26T13:04:45;21.23;;;10.05;;
55065;SDS011;40964;42.114;24.220;2024-02-26T13:07:11;21.27;;;10.52;;
55065;SDS011;40964;42.114;24.220;2024-02-26T13:09:36;21.50;;;9.88;;
55065;SDS011;40964;42.114;24.220;2024-02-26T13:12:05;17.25;;;9.98;;
55065;SDS011;40964;42.114;24.220;2024-02-26T13:14:31;23.27;;;10.55;;
55065;SDS011;40964;42.114;24.220;2024-02-26T13:16:59;26.35;;;10.85;;
55065;SDS011;40964;42.114;24.220;2024-02-26T13:19:25;22.23;;;10.52;;
55065;SDS011;40964;42.114;24.220;2024-02-26T13:21:52;30.58;;;10.95;;
55065;SDS011;40964;42.114;24.220;2024-02-26T13:24:19;17.70;;;10.13;;
55065;SDS011;40964;42.114;24.220;2024-02-26T13:26:45;20.17;;;9.68;;
55065;SDS011;40964;42.114;24.220;2024-02-26T13:29:20;18.17;;;10.02;;
55065;SDS011;40964;42.114;24.220;2024-02-26T13:31:45;19.60;;;10.32;;
55065;SDS011;40964;42.114;24.220;2024-02-26T13:34:12;17.42;;;9.55;;
55065;SDS011;40964;42.114;24.220;2024-02-26T13:36:49;19.27;;;9.25;;
55065;SDS011;40964;42.114;24.220;2024-02-26T13:39:20;18.67;;;10.38;;
55065;SDS011;40964;42.114;24.220;2024-02-26T13:41:50;23.25;;;10.25;;
55065;SDS011;40964;42.114;24.220;2024-02-26T13:44:16;20.77;;;9.60;;
55065;SDS011;40964;42.114;24.220;2024-02-26T13:46:41;21.90;;;10.15;;
55065;SDS011;40964;42.114;24.220;2024-02-26T13:49:08;42.65;;;19.98;;
55065;SDS011;40964;42.114;24.220;2024-02-26T13:51:34;43.00;;;19.52;;
55065;SDS011;40964;42.114;24.220;2024-02-26T13:54:00;23.83;;;11.23;;
55065;SDS011;40964;42.114;24.220;2024-02-26T13:56:29;31.88;;;13.88;;
55065;SDS011;40964;42.114;24.220;2024-02-26T13:58:56;21.80;;;10.30;;
55065;SDS011;40964;42.114;24.220;2024-02-26T14:01:21;21.13;;;10.25;;
55065;SDS011;40964;42.114;24.220;2024-02-26T14:03:46;18.60;;;9.38;;
55065;SDS011;40964;42.114;24.220;2024-02-26T14:06:12;20.17;;;9.15;;
55065;SDS011;40964;42.114;24.220;2024-02-26T14:08:38;17.17;;;9.55;;
55065;SDS011;40964;42.114;24.220;2024-02-26T14:11:03;25.75;;;10.00;;
55065;SDS011;40964;42.114;24.220;2024-02-26T14:13:28;19.73;;;9.15;;
55065;SDS011;40964;42.114;24.220;2024-02-26T14:15:54;16.23;;;9.07;;
55065;SDS011;40964;42.114;24.220;2024-02-26T14:18:19;18.65;;;9.50;;
55065;SDS011;40964;42.114;24.220;2024-02-26T14:20:45;17.40;;;9.13;;
55065;SDS011;40964;42.114;24.220;2024-02-26T14:23:10;20.58;;;9.27;;
55065;SDS011;40964;42.114;24.220;2024-02-26T14:25:36;22.58;;;9.75;;
55065;SDS011;40964;42.114;24.220;2024-02-26T14:28:02;16.40;;;8.85;;
55065;SDS011;40964;42.114;24.220;2024-02-26T14:30:28;20.08;;;8.57;;
55065;SDS011;40964;42.114;24.220;2024-02-26T14:32:54;16.70;;;8.45;;